createdAt,value
2022-12-05T00:02:13.292Z,101864.41
2022-12-05T00:04:41.370Z,101862.13
2022-12-05T00:07:09.529Z,101872.34
2022-12-05T00:09:37.519Z,101866.88
2022-12-05T00:12:05.806Z,101867.56
2022-12-05T00:14:33.773Z,101866.56
2022-12-05T00:17:03.261Z,101866.88
2022-12-05T00:19:31.354Z,101859.19
2022-12-05T00:21:59.359Z,101869.25
2022-12-05T00:24:27.688Z,101869.09
2022-12-05T00:26:55.729Z,101866.78
2022-12-05T00:29:23.779Z,101866.56
2022-12-05T00:31:51.805Z,101868.25
2022-12-05T00:34:21.253Z,101873.31
2022-12-05T00:36:49.295Z,101871.63
2022-12-05T00:39:17.373Z,101869.09
2022-12-05T00:41:45.393Z,101866.03
2022-12-05T00:44:14.481Z,101866.81
2022-12-05T00:46:43.009Z,101866.25
2022-12-05T00:49:12.493Z,101863.25
2022-12-05T00:51:43.493Z,101865.88
2022-12-05T00:54:13.756Z,101865.31
2022-12-05T00:56:42.340Z,101859.28
2022-12-05T00:59:15.978Z,101849.19
2022-12-05T01:01:45.985Z,101854.28
2022-12-05T01:04:16.005Z,101857.94
2022-12-05T01:06:45.873Z,101860.63
2022-12-05T01:10:27.440Z,101859.88
2022-12-05T01:12:55.508Z,101861.78
2022-12-05T01:15:23.911Z,101856.47
2022-12-05T01:17:52.144Z,101861.25
2022-12-05T01:20:20.479Z,101858.84
2022-12-05T01:22:49.941Z,101862.63
2022-12-05T01:25:18.058Z,101865.19
2022-12-05T01:27:46.168Z,101865.84
2022-12-05T01:30:14.893Z,101866.47
2022-12-05T01:32:42.992Z,101868.84
2022-12-05T01:35:11.542Z,101871.06
2022-12-05T01:37:39.640Z,101877.81
2022-12-05T01:40:10.478Z,101870.56
2022-12-05T01:43:28.428Z,101871.78
2022-12-05T01:45:56.916Z,101875.31
2022-12-05T01:48:29.488Z,101875.31
2022-12-05T01:51:00.271Z,101877.69
2022-12-05T01:53:30.657Z,101881.22
2022-12-05T01:56:00.204Z,101876.34
2022-12-05T01:58:33.808Z,101885.13
2022-12-05T02:01:02.695Z,101890.81
2022-12-05T02:03:31.022Z,101890.50
2022-12-05T02:05:59.947Z,101886.50
2022-12-05T02:08:30.186Z,101893.06
2022-12-05T02:11:00.430Z,101886.13
2022-12-05T02:13:42.310Z,101893.88
2022-12-05T02:16:19.510Z,101894.59
2022-12-05T02:19:00.202Z,101893.88
2022-12-05T02:22:03.759Z,101895.25
2022-12-05T02:24:55.015Z,101891.72
2022-12-05T02:27:40.625Z,101891.91
2022-12-05T02:30:13.100Z,101888.72
2022-12-05T02:32:53.030Z,101886.34
2022-12-05T02:35:38.551Z,101893.81
2022-12-05T02:38:16.554Z,101889.88
2022-12-05T02:40:52.870Z,101893.31
2022-12-05T02:43:27.338Z,101897.34
2022-12-05T02:46:01.820Z,101897.72
2022-12-05T02:48:30.679Z,101888.94
2022-12-05T02:51:01.718Z,101892.34
2022-12-05T02:53:31.330Z,101898.69
2022-12-05T02:56:00.846Z,101901.94
2022-12-05T02:58:34.109Z,101890.25
2022-12-05T03:01:05.847Z,101887.56
2022-12-05T03:03:35.585Z,101895.34
2022-12-05T03:06:09.495Z,101889.66
2022-12-05T03:08:41.863Z,101891.78
2022-12-05T03:11:10.544Z,101896.31
2022-12-05T03:13:42.910Z,101901.38
2022-12-05T03:16:16.120Z,101902.03
2022-12-05T03:18:48.459Z,101894.09
2022-12-05T03:21:25.852Z,101896.31
2022-12-05T03:23:57.835Z,101900.34
2022-12-05T03:26:38.551Z,101900.63
2022-12-05T03:29:22.103Z,101907.41
2022-12-05T03:31:58.776Z,101894.66
2022-12-05T03:34:38.519Z,101905.72
2022-12-05T03:37:12.428Z,101902.03
2022-12-05T03:39:45.868Z,101900.94
2022-12-05T03:42:18.852Z,101908.81
2022-12-05T03:44:53.070Z,101903.94
2022-12-05T03:47:31.346Z,101908.81
2022-12-05T03:50:04.407Z,101908.47
2022-12-05T03:52:56.954Z,101917.22
2022-12-05T03:55:30.122Z,101908.16
2022-12-05T03:58:02.135Z,101921.25
2022-12-05T04:00:36.314Z,101919.78
2022-12-05T04:03:11.799Z,101910.47
2022-12-05T04:05:44.795Z,101919.91
2022-12-05T04:08:17.562Z,101922.00
2022-12-05T04:10:51.250Z,101927.38
2022-12-05T04:13:23.305Z,101921.31
2022-12-05T04:16:13.737Z,101920.59
2022-12-05T04:18:48.603Z,101928.59
2022-12-05T04:21:38.286Z,101931.75
2022-12-05T04:24:27.246Z,101931.75
2022-12-05T04:27:05.461Z,101931.06
2022-12-05T04:29:38.850Z,101933.44
2022-12-05T04:32:12.015Z,101935.16
2022-12-05T04:34:46.346Z,101938.53
2022-12-05T04:37:19.639Z,101934.00
2022-12-05T04:39:54.388Z,101936.50
2022-12-05T04:42:27.314Z,101934.38
2022-12-05T04:45:00.247Z,101939.75
2022-12-05T04:47:32.524Z,101931.81
2022-12-05T04:50:04.003Z,101933.22
2022-12-05T04:52:32.776Z,101928.66
2022-12-05T04:55:06.208Z,101929.66
2022-12-05T04:57:38.209Z,101939.44
2022-12-05T05:00:07.598Z,101939.56
2022-12-05T05:02:42.660Z,101937.25
2022-12-05T05:05:18.044Z,101944.63
2022-12-05T05:07:47.671Z,101947.00
2022-12-05T05:10:20.889Z,101950.72
2022-12-05T05:12:48.884Z,101949.72
2022-12-05T05:15:19.573Z,101955.91
2022-12-05T05:17:47.818Z,101959.81
2022-12-05T05:20:27.345Z,101965.56
2022-12-05T05:22:57.166Z,101960.34
2022-12-05T05:25:26.321Z,101958.34
2022-12-05T05:27:56.857Z,101954.63
2022-12-05T05:30:26.065Z,101959.19
2022-12-05T05:32:54.809Z,101961.72
2022-12-05T05:35:24.238Z,101969.13
2022-12-05T05:37:52.248Z,101967.63
2022-12-05T05:40:20.463Z,101968.56
2022-12-05T05:42:50.639Z,101971.31
2022-12-05T05:45:19.244Z,101964.41
2022-12-05T05:47:49.596Z,101976.34
2022-12-05T05:50:21.533Z,101975.84
2022-12-05T05:52:51.369Z,101979.56
2022-12-05T05:55:19.849Z,101979.72
2022-12-05T05:57:48.016Z,101978.72
2022-12-05T06:00:17.186Z,101975.03
2022-12-05T06:02:45.435Z,101986.31
2022-12-05T06:05:13.661Z,101982.47
2022-12-05T06:07:41.840Z,101971.53
2022-12-05T06:10:11.657Z,101985.16
2022-12-05T06:13:08.331Z,101983.16
2022-12-05T06:15:38.320Z,101983.16
2022-12-05T06:18:06.713Z,101983.16
2022-12-05T06:20:34.764Z,101994.44
2022-12-05T06:23:02.797Z,101995.97
2022-12-05T06:25:34.557Z,101990.78
2022-12-05T06:28:02.630Z,101987.75
2022-12-05T06:30:30.623Z,101989.63
2022-12-05T06:32:58.694Z,101991.28
2022-12-05T06:36:59.228Z,101998.69
2022-12-05T06:39:27.339Z,101998.06
2022-12-05T06:41:56.737Z,102001.06
2022-12-05T06:44:27.080Z,102000.44
2022-12-05T06:46:55.272Z,101998.72
2022-12-05T06:49:30.768Z,102003.97
2022-12-05T06:52:01.111Z,102014.44
2022-12-05T06:54:29.163Z,102001.81
2022-12-05T06:56:58.551Z,102003.84
2022-12-05T06:59:26.530Z,102002.81
2022-12-05T07:01:53.666Z,102002.13
2022-12-05T07:04:24.402Z,101996.59
2022-12-05T07:06:54.109Z,102012.56
2022-12-05T07:09:44.274Z,102012.81
2022-12-05T07:12:14.611Z,102013.78
2022-12-05T07:14:48.216Z,102021.72
2022-12-05T07:17:17.503Z,102022.44
2022-12-05T07:19:45.799Z,102022.88
2022-12-05T07:22:15.995Z,102021.03
2022-12-05T07:24:44.829Z,102029.81
2022-12-05T07:27:16.974Z,102026.78
2022-12-05T07:29:46.576Z,102030.66
2022-12-05T07:32:14.778Z,102032.50
2022-12-05T07:34:42.903Z,102036.16
2022-12-05T07:37:11.272Z,102027.97
2022-12-05T07:39:39.589Z,102033.16
2022-12-05T07:42:07.728Z,102045.59
2022-12-05T07:44:37.256Z,102049.31
2022-12-05T07:47:05.376Z,102055.38
2022-12-05T07:49:58.345Z,102049.41
2022-12-05T07:52:26.713Z,102070.13
2022-12-05T07:54:54.763Z,102064.72
2022-12-05T07:57:22.815Z,102066.41
2022-12-05T07:59:52.263Z,102071.28
2022-12-05T08:02:20.416Z,102065.88
2022-12-05T08:04:48.509Z,102069.66
2022-12-05T08:07:16.594Z,102079.88
2022-12-05T08:09:44.615Z,102081.09
2022-12-05T08:12:12.883Z,102079.72
2022-12-05T08:14:40.861Z,102078.50
2022-12-05T08:17:10.366Z,102090.34
2022-12-05T08:19:38.712Z,102090.19
2022-12-05T08:22:06.742Z,102097.75
2022-12-05T08:24:35.275Z,102085.25
2022-12-05T08:27:03.307Z,102089.66
2022-12-05T08:29:32.662Z,102086.03
2022-12-05T08:32:00.774Z,102093.25
2022-12-05T08:34:31.430Z,102094.09
2022-12-05T08:36:59.493Z,102093.47
2022-12-05T08:39:27.711Z,102094.69
2022-12-05T08:41:55.808Z,102103.41
2022-12-05T08:44:23.976Z,102101.94
2022-12-05T08:46:52.145Z,102093.72
2022-12-05T08:49:20.527Z,102103.34
2022-12-05T08:51:50.005Z,102093.38
2022-12-05T08:54:18.415Z,102097.13
2022-12-05T08:56:46.614Z,102094.81
2022-12-05T08:59:14.645Z,102098.13
2022-12-05T09:01:43.318Z,102097.31
2022-12-05T09:04:12.615Z,102103.06
2022-12-05T09:06:41.904Z,102092.97
2022-12-05T09:09:12.559Z,102096.53
2022-12-05T09:11:46.518Z,102105.16
2022-12-05T09:14:15.066Z,102104.06
2022-12-05T09:16:46.044Z,102110.00
2022-12-05T09:19:15.758Z,102110.53
2022-12-05T09:21:44.459Z,102111.06
2022-12-05T09:24:15.104Z,102111.75
2022-12-05T09:26:43.313Z,102120.03
2022-12-05T09:29:16.645Z,102125.75
2022-12-05T09:31:46.771Z,102121.38
2022-12-05T09:34:15.337Z,102127.16
2022-12-05T09:36:44.146Z,102121.97
2022-12-05T09:39:13.580Z,102126.47
2022-12-05T09:42:29.781Z,102119.13
2022-12-05T09:45:05.961Z,102134.28
2022-12-05T09:47:43.598Z,102139.06
2022-12-05T09:50:19.957Z,102140.75
2022-12-05T09:53:00.610Z,102134.97
2022-12-05T09:55:39.127Z,102146.19
2022-12-05T09:58:20.615Z,102145.53
2022-12-05T10:00:50.433Z,102151.09
2022-12-05T10:03:25.498Z,102152.66
2022-12-05T10:06:08.016Z,102159.72
2022-12-05T10:08:45.823Z,102160.94
2022-12-05T10:16:17.187Z,102164.38
2022-12-05T10:18:48.527Z,102158.59
2022-12-05T10:21:21.078Z,102155.25
2022-12-05T10:24:00.597Z,102155.47
2022-12-05T10:26:31.822Z,102154.59
2022-12-05T10:29:02.073Z,102153.25
2022-12-05T10:31:36.690Z,102145.84
2022-12-05T10:34:11.139Z,102147.84
2022-12-05T10:36:39.189Z,102145.50
2022-12-05T10:39:11.394Z,102152.94
2022-12-05T10:41:40.158Z,102149.44
2022-12-05T10:44:34.640Z,102151.34
2022-12-05T10:47:04.152Z,102161.13
2022-12-05T10:49:33.864Z,102145.47
2022-12-05T10:52:02.104Z,102160.78
2022-12-05T10:54:33.480Z,102151.88
2022-12-05T10:57:01.939Z,102154.94
2022-12-05T10:59:47.185Z,102154.59
2022-12-05T11:02:24.470Z,102161.38
2022-12-05T11:04:53.754Z,102156.47
2022-12-05T11:07:30.160Z,102151.75
2022-12-05T11:09:59.317Z,102163.56
2022-12-05T11:12:37.362Z,102154.25
2022-12-05T11:15:21.867Z,102156.63
2022-12-05T11:17:52.211Z,102156.47
2022-12-05T11:20:40.034Z,102154.13
2022-12-05T11:23:23.519Z,102158.72
2022-12-05T11:25:52.039Z,102158.00
2022-12-05T11:28:35.775Z,102153.13
2022-12-05T11:31:08.661Z,102161.41
2022-12-05T11:33:40.019Z,102157.19
2022-12-05T11:36:15.780Z,102152.97
2022-12-05T11:38:44.347Z,102154.31
2022-12-05T11:41:39.484Z,102153.31
2022-12-05T11:44:29.476Z,102152.28
2022-12-05T11:47:07.972Z,102149.78
2022-12-05T11:50:03.883Z,102151.28
2022-12-05T11:52:43.471Z,102150.63
2022-12-05T11:55:17.735Z,102156.88
2022-12-05T11:58:01.682Z,102154.00
2022-12-05T12:00:37.575Z,102149.97
2022-12-05T12:03:33.492Z,102158.41
2022-12-05T12:06:20.754Z,102150.66
2022-12-05T12:09:11.863Z,102144.56
2022-12-05T12:11:46.313Z,102133.25
2022-12-05T12:14:26.035Z,102133.91
2022-12-05T12:17:03.861Z,102139.50
2022-12-05T12:19:46.901Z,102137.81
2022-12-05T12:22:32.744Z,102136.09
2022-12-05T12:25:16.783Z,102135.94
2022-12-05T12:28:04.232Z,102133.75
2022-12-05T12:30:46.396Z,102129.00
2022-12-05T12:33:27.296Z,102126.63
2022-12-05T12:36:01.685Z,102137.78
2022-12-05T12:38:54.196Z,102138.63
2022-12-05T12:41:46.837Z,102134.53
2022-12-05T12:44:41.642Z,102133.00
2022-12-05T12:47:18.830Z,102138.09
2022-12-05T12:50:02.350Z,102142.66
2022-12-05T12:52:43.874Z,102147.06
2022-12-05T12:55:25.941Z,102158.88
2022-12-05T12:58:05.245Z,102160.41
2022-12-05T13:01:02.574Z,102149.09
2022-12-05T13:03:38.958Z,102147.56
2022-12-05T13:06:14.757Z,102145.72
2022-12-05T13:08:48.589Z,102138.97
2022-12-05T13:11:19.712Z,102138.44
2022-12-05T13:13:50.146Z,102134.38
2022-12-05T13:16:25.297Z,102132.53
2022-12-05T13:18:54.941Z,102125.44
2022-12-05T13:21:23.911Z,102126.28
2022-12-05T13:23:56.144Z,102135.75
2022-12-05T13:26:25.763Z,102127.63
2022-12-05T13:28:56.271Z,102127.63
2022-12-05T13:31:37.501Z,102123.59
2022-12-05T13:34:05.450Z,102130.66
2022-12-05T13:36:58.935Z,102129.66
2022-12-05T13:39:44.727Z,102122.03
2022-12-05T13:42:25.020Z,102128.28
2022-12-05T13:44:57.166Z,102126.94
2022-12-05T13:48:39.457Z,102127.94
2022-12-05T13:51:11.307Z,102131.16
2022-12-05T13:53:44.004Z,102136.88
2022-12-05T13:56:27.705Z,102132.84
2022-12-05T13:58:58.785Z,102138.25
2022-12-05T14:01:53.881Z,102138.41
2022-12-05T14:04:41.097Z,102129.78
2022-12-05T14:07:11.299Z,102129.31
2022-12-05T14:09:54.841Z,102135.38
2022-12-05T14:12:49.159Z,102136.41
2022-12-05T14:15:33.663Z,102136.03
2022-12-05T14:18:05.758Z,102144.00
2022-12-05T14:20:49.446Z,102148.59
2022-12-05T14:23:51.645Z,102142.31
2022-12-05T14:26:41.151Z,102140.81
2022-12-05T14:29:25.388Z,102148.94
2022-12-05T14:32:07.013Z,102146.06
2022-12-05T14:34:38.028Z,102139.81
2022-12-05T14:37:23.010Z,102145.91
2022-12-05T14:39:53.759Z,102148.78
2022-12-05T14:42:30.736Z,102151.31
2022-12-05T14:45:01.856Z,102148.94
2022-12-05T14:47:32.689Z,102146.56
2022-12-05T14:50:21.703Z,102150.78
2022-12-05T14:53:20.515Z,102145.72
2022-12-05T14:55:52.051Z,102146.56
2022-12-05T14:58:26.919Z,102158.22
2022-12-05T15:01:00.255Z,102154.66
2022-12-05T15:03:33.736Z,102154.34
2022-12-05T15:06:05.020Z,102155.19
2022-12-05T15:08:42.024Z,102152.66
2022-12-05T15:11:28.161Z,102166.38
2022-12-05T15:14:01.435Z,102165.16
2022-12-05T15:16:31.668Z,102167.84
2022-12-05T15:19:07.233Z,102167.22
2022-12-05T15:21:41.102Z,102166.53
2022-12-05T15:24:14.918Z,102173.97
2022-12-05T15:26:48.915Z,102166.69
2022-12-05T15:29:26.704Z,102173.97
2022-12-05T15:31:57.141Z,102181.09
2022-12-05T15:34:30.426Z,102171.94
2022-12-05T15:37:03.898Z,102179.22
2022-12-05T15:39:51.683Z,102183.25
2022-12-05T15:42:22.515Z,102174.50
2022-12-05T15:44:54.306Z,102180.75
2022-12-05T15:47:24.556Z,102188.84
2022-12-05T15:49:54.154Z,102196.63
2022-12-05T15:52:32.653Z,102195.78
2022-12-05T15:55:04.845Z,102204.06
2022-12-05T15:57:38.956Z,102200.16
2022-12-05T16:00:15.839Z,102198.16
2022-12-05T16:02:48.791Z,102189.19
2022-12-05T16:05:33.272Z,102197.63
2022-12-05T16:08:03.375Z,102197.44
2022-12-05T16:10:32.173Z,102199.13
2022-12-05T16:13:06.260Z,102202.84
2022-12-05T16:15:35.221Z,102205.06
2022-12-05T16:18:06.056Z,102205.03
2022-12-05T16:20:37.037Z,102212.47
2022-12-05T16:23:07.180Z,102207.53
2022-12-05T16:25:36.981Z,102202.00
2022-12-05T16:28:17.776Z,102216.34
2022-12-05T16:30:58.167Z,102212.81
2022-12-05T16:33:28.412Z,102205.69
2022-12-05T16:36:08.067Z,102208.72
2022-12-05T16:38:36.588Z,102216.84
2022-12-05T16:41:08.676Z,102212.09
2022-12-05T16:43:46.290Z,102211.09
2022-12-05T16:46:45.711Z,102214.31
2022-12-05T16:49:19.547Z,102209.75
2022-12-05T16:51:57.312Z,102211.25
2022-12-05T16:54:25.696Z,102221.53
2022-12-05T16:56:53.896Z,102213.97
2022-12-05T16:59:25.204Z,102220.91
2022-12-05T17:01:53.326Z,102228.97
2022-12-05T17:05:36.912Z,102232.69
2022-12-05T17:08:06.737Z,102241.81
2022-12-05T17:10:35.180Z,102246.53
2022-12-05T17:13:03.449Z,102244.34
2022-12-05T17:15:32.730Z,102238.09
2022-12-05T17:18:01.797Z,102238.09
2022-12-05T17:20:30.151Z,102232.53
2022-12-05T17:22:58.172Z,102230.00
2022-12-05T17:25:32.796Z,102232.03
2022-12-05T17:28:00.885Z,102242.31
2022-12-05T17:30:29.009Z,102249.94
2022-12-05T17:32:57.074Z,102253.31
2022-12-05T17:35:25.309Z,102246.03
2022-12-05T17:37:53.638Z,102250.59
2022-12-05T17:40:21.802Z,102254.97
2022-12-05T17:42:51.269Z,102248.56
2022-12-05T17:45:19.530Z,102251.94
2022-12-05T17:47:47.631Z,102253.63
2022-12-05T17:50:17.145Z,102262.06
2022-12-05T17:52:45.881Z,102258.38
2022-12-05T17:55:18.845Z,102268.69
2022-12-05T17:57:47.033Z,102264.75
2022-12-05T18:00:18.923Z,102256.34
2022-12-05T18:02:47.511Z,102261.56
2022-12-05T18:05:17.502Z,102277.09
2022-12-05T18:07:46.897Z,102269.84
2022-12-05T18:10:17.857Z,102273.22
2022-12-05T18:12:46.024Z,102281.31
2022-12-05T18:15:15.265Z,102284.19
2022-12-05T18:17:45.226Z,102281.97
2022-12-05T18:20:15.617Z,102272.84
2022-12-05T18:22:44.057Z,102269.81
2022-12-05T18:25:12.480Z,102277.22
2022-12-05T18:27:40.654Z,102270.97
2022-12-05T18:30:09.716Z,102271.81
2022-12-05T18:32:37.862Z,102277.56
2022-12-05T18:35:12.927Z,102278.88
2022-12-05T18:37:41.347Z,102284.94
2022-12-05T18:40:11.554Z,102283.72
2022-12-05T18:42:39.680Z,102283.81
2022-12-05T18:45:08.984Z,102288.06
2022-12-05T18:47:37.070Z,102285.53
2022-12-05T18:50:05.754Z,102293.63
2022-12-05T18:52:35.974Z,102300.34
2022-12-05T18:55:16.871Z,102301.00
2022-12-05T18:57:45.844Z,102305.06
2022-12-05T19:00:14.928Z,102308.63
2022-12-05T19:02:43.150Z,102305.28
2022-12-05T19:05:11.233Z,102302.91
2022-12-05T19:07:41.856Z,102308.44
2022-12-05T19:10:11.123Z,102302.34
2022-12-05T19:12:39.217Z,102315.56
2022-12-05T19:15:08.178Z,102323.13
2022-12-05T19:17:36.240Z,102315.34
2022-12-05T19:20:05.648Z,102315.81
2022-12-05T19:22:33.668Z,102321.44
2022-12-05T19:29:47.118Z,102321.22
2022-12-05T19:32:15.422Z,102322.59
2022-12-05T19:34:43.724Z,102318.69
2022-12-05T19:37:11.932Z,102314.13
2022-12-05T19:39:40.019Z,102319.00
2022-12-05T19:42:08.284Z,102327.25
2022-12-05T19:44:36.593Z,102321.16
2022-12-05T19:47:06.430Z,102328.25
2022-12-05T19:49:37.381Z,102323.00
2022-12-05T19:52:05.856Z,102323.69
2022-12-05T19:54:34.142Z,102320.16
2022-12-05T19:57:02.314Z,102312.00
2022-12-05T19:59:30.619Z,102328.19
2022-12-05T20:01:59.934Z,102325.81
2022-12-05T20:04:29.506Z,102332.84
2022-12-05T20:07:22.294Z,102336.56
2022-12-05T20:09:53.125Z,102335.41
2022-12-05T20:12:21.618Z,102344.16
2022-12-05T20:14:50.047Z,102328.91
2022-12-05T20:17:18.059Z,102336.19
2022-12-05T20:19:47.450Z,102332.47
2022-12-05T20:22:15.494Z,102336.19
2022-12-05T20:24:43.529Z,102323.66
2022-12-05T20:27:11.773Z,102333.41
2022-12-05T20:29:41.551Z,102328.16
2022-12-05T20:32:10.156Z,102321.28
2022-12-05T20:34:38.220Z,102334.25
2022-12-05T20:37:08.050Z,102327.31
2022-12-05T20:39:36.213Z,102326.78
2022-12-05T20:42:05.118Z,102338.41
2022-12-05T20:44:35.955Z,102327.63
2022-12-05T20:47:04.325Z,102337.78
2022-12-05T20:49:32.433Z,102334.38
2022-12-05T20:52:00.586Z,102343.50
2022-12-05T20:54:30.165Z,102340.41
2022-12-05T20:56:58.316Z,102348.28
2022-12-05T20:59:26.454Z,102344.44
2022-12-05T21:01:54.963Z,102348.44
2022-12-05T21:04:23.580Z,102351.13
2022-12-05T21:06:51.745Z,102348.44
2022-12-05T21:09:26.850Z,102353.81
2022-12-05T21:11:57.268Z,102357.22
2022-12-05T21:14:25.697Z,102354.13
2022-12-05T21:16:53.929Z,102353.53
2022-12-05T21:19:22.716Z,102353.31
2022-12-05T21:21:50.808Z,102357.16
2022-12-05T21:24:18.953Z,102355.28
2022-12-05T21:26:47.932Z,102368.31
2022-12-05T21:29:17.403Z,102369.84
2022-12-05T21:31:45.944Z,102368.69
2022-12-05T21:34:16.935Z,102355.59
2022-12-05T21:36:46.075Z,102355.81
2022-12-05T21:39:14.326Z,102362.78
2022-12-05T21:41:42.992Z,102356.75
2022-12-05T21:44:11.271Z,102357.16
2022-12-05T21:47:06.043Z,102353.88
2022-12-05T21:49:34.189Z,102354.28
2022-12-05T21:52:02.300Z,102351.28
2022-12-05T21:54:31.278Z,102347.91
2022-12-05T21:56:59.483Z,102349.72
2022-12-05T21:59:29.227Z,102340.25
2022-12-05T22:01:57.356Z,102340.97
2022-12-05T22:04:26.950Z,102349.38
2022-12-05T22:11:35.113Z,102347.34
2022-12-05T22:14:03.256Z,102355.03
2022-12-05T22:16:33.430Z,102352.66
2022-12-05T22:23:12.498Z,102346.66
2022-12-05T22:25:44.653Z,102348.22
2022-12-05T22:28:12.713Z,102350.34
2022-12-05T22:30:40.697Z,102354.75
2022-12-05T22:33:08.755Z,102357.47
2022-12-05T22:40:10.699Z,102362.22
2022-12-05T22:42:38.990Z,102363.34
2022-12-05T22:45:08.090Z,102356.22
2022-12-05T22:47:36.204Z,102360.59
2022-12-05T22:50:04.672Z,102360.22
2022-12-05T22:52:32.697Z,102362.78
2022-12-05T22:55:01.021Z,102363.84
2022-12-05T22:57:31.481Z,102368.16
2022-12-05T22:59:59.686Z,102365.41
2022-12-05T23:02:28.000Z,102363.84
2022-12-05T23:04:56.123Z,102357.56
2022-12-05T23:07:24.190Z,102370.78
2022-12-05T23:09:52.528Z,102367.09
2022-12-05T23:12:20.750Z,102370.78
2022-12-05T23:14:50.257Z,102371.06
2022-12-05T23:17:18.525Z,102365.81
2022-12-05T23:19:46.655Z,102372.94
2022-12-05T23:22:14.888Z,102366.47
2022-12-05T23:24:42.990Z,102366.84
2022-12-05T23:27:11.251Z,102366.84
2022-12-05T23:29:39.395Z,102361.91
2022-12-05T23:32:08.920Z,102371.53
2022-12-05T23:34:37.027Z,102356.91
2022-12-05T23:37:05.362Z,102356.72
2022-12-05T23:39:33.537Z,102358.38
2022-12-05T23:42:02.075Z,102358.97
2022-12-05T23:44:30.381Z,102363.22
2022-12-05T23:46:58.578Z,102368.31
2022-12-05T23:49:28.279Z,102371.53
2022-12-05T23:51:56.334Z,102357.66
2022-12-05T23:54:24.522Z,102365.91
2022-12-05T23:56:55.145Z,102368.03
2022-12-05T23:59:23.427Z,102371.16
